Tuesday, May 3, 2016, 2:10 PM EDT

KEZF, Fredericksburg, Shannon Airport

Location: Fredericksburg, VA, United States Lat: 38.267
Local Time: 2:10 PM EDT (18:10 GMT) Lon: -77.45
Time Zone: US/Eastern Elev: 85 ft

Show me the last for .
Show Decoded

2016-05-03 13:55 METAR KEZF 031755Z AUTO 06005KT 10SM BKN027 BKN036 OVC070 22/16 A2977 RMK AO2
                 T02150163 10220 20175 =
2016-05-03 13:35 METAR KEZF 031735Z AUTO 00000KT 10SM BKN070 22/16 A2977 RMK AO2 T02200162 =
2016-05-03 13:15 METAR KEZF 031715Z AUTO 02003KT 10SM SCT026 BKN050 OVC070 22/16 A2977 RMK AO2
                 T02150161 =
2016-05-03 12:55 METAR KEZF 031655Z AUTO 06004KT 10SM SCT026 BKN036 OVC050 21/17 A2978 RMK AO2
                 T02120165 =
2016-05-03 12:35 METAR KEZF 031635Z AUTO 00000KT 10SM SCT034 SCT044 OVC055 22/17 A2978 RMK AO2
                 T02150168 =
2016-05-03 12:15 METAR KEZF 031615Z AUTO 02005KT 10SM SCT021 SCT028 OVC044 21/16 A2978 RMK AO2
                 T02060164 =
2016-05-03 11:55 METAR KEZF 031555Z AUTO 35006KT 10SM SCT021 BKN027 BKN033 21/17 A2979 RMK AO2
                 T02060168 =
2016-05-03 11:35 METAR KEZF 031535Z AUTO 35003KT 10SM SCT021 SCT027 SCT031 21/17 A2979 RMK AO2
                 T02110167 =
2016-05-03 11:15 METAR KEZF 031515Z AUTO 05004KT 10SM SCT019 SCT026 BKN095 21/18 A2978 RMK AO2
                 T02090177 =
2016-05-03 10:55 METAR KEZF 031455Z AUTO 00000KT 10SM SCT019 SCT085 21/18 A2979 RMK AO2 T02060177
                 =
2016-05-03 10:35 METAR KEZF 031435Z AUTO 00000KT 10SM SCT008 20/19 A2979 RMK AO2 T02030187 =
2016-05-03 10:15 METAR KEZF 031415Z AUTO 00000KT 10SM BKN008 BKN012 BKN090 20/19 A2980 RMK AO2
                 T01970194 =
2016-05-03 09:55 METAR KEZF 031355Z AUTO 00000KT 10SM BKN006 19/19 A2980 RMK AO2 T01900190 =
2016-05-03 09:35 METAR KEZF 031335Z AUTO 00000KT 10SM BKN006 BKN065 BKN080 19/19 A2980 RMK AO2
                 T01850185 =
2016-05-03 09:15 METAR KEZF 031315Z AUTO 25003KT 10SM -DZ SCT006 SCT080 18/18 A2980 RMK AO2
                 T01820182 =
2016-05-03 08:55 METAR KEZF 031255Z AUTO 25003KT 10SM -DZ SCT006 SCT090 18/18 A2980 RMK AO2
                 T01780178 =
2016-05-03 08:35 METAR KEZF 031235Z AUTO 00000KT 10SM BKN006 BKN090 18/18 A2979 RMK AO2 T01770177
                 =
2016-05-03 08:15 METAR KEZF 031215Z AUTO 00000KT 10SM OVC006 18/18 A2979 RMK AO2 T01760176 =
2016-05-03 07:55 METAR KEZF 031155Z AUTO 00000KT 10SM BKN006 BKN090 18/18 A2979 RMK AO2 60001
                 70010 T01760176 10178 20172 =
2016-05-03 07:35 METAR KEZF 031135Z AUTO 00000KT 10SM BKN006 BKN090 17/17 A2979 RMK AO2 T01730173
                 =
2016-05-03 07:15 METAR KEZF 031115Z AUTO 00000KT 10SM BKN006 17/17 A2980 RMK AO2 T01730173 =
2016-05-03 06:55 METAR KEZF 031055Z AUTO 00000KT 10SM OVC006 17/17 A2979 RMK AO2 T01720172 =
2016-05-03 06:35 METAR KEZF 031035Z AUTO 00000KT 10SM OVC008 17/17 A2979 RMK AO2 T01730173 =
2016-05-03 06:15 METAR KEZF 031015Z AUTO 00000KT 10SM BKN008 OVC080 17/17 A2979 RMK AO2 T01720172
                 =
2016-05-03 05:55 METAR KEZF 030955Z AUTO 00000KT 10SM SCT008 OVC080 17/17 A2980 RMK AO2 T01730173
                 =
2016-05-03 05:35 METAR KEZF 030935Z AUTO 00000KT 10SM SCT008 BKN080 17/17 A2979 RMK AO2 T01730173
                 =
2016-05-03 05:15 METAR KEZF 030915Z AUTO 00000KT 10SM BKN010 BKN080 18/18 A2979 RMK AO2 T01750175
                 =
2016-05-03 04:55 METAR KEZF 030855Z AUTO 00000KT 10SM BKN010 BKN080 17/17 A2980 RMK AO2 60001
                 T01740174 =
2016-05-03 04:35 METAR KEZF 030835Z AUTO 00000KT 5SM BR SCT008 SCT065 SCT080 18/18 A2980 RMK AO2
                 T01750175 =
2016-05-03 04:15 METAR KEZF 030815Z AUTO 00000KT 10SM SCT006 SCT010 SCT017 18/18 A2980 RMK AO2
                 T01760176 =
2016-05-03 03:55 METAR KEZF 030755Z AUTO 00000KT 10SM BKN015 18/18 A2979 RMK AO2 P0001 T01760176
                 =
2016-05-03 03:35 METAR KEZF 030735Z AUTO 00000KT 10SM -DZ BKN015 BKN032 BKN080 18/18 A2980 RMK
                 AO2 P0001 T01760176 =
2016-05-03 03:10 METAR KEZF 030710Z AUTO 00000KT 10SM DZ SCT015 BKN027 OVC080 18/18 A2981 RMK AO2
                 T01770177 =
2016-05-03 02:55 METAR KEZF 030655Z AUTO 00000KT 10SM SCT015 BKN029 OVC110 18/18 A2981 RMK AO2
                 T01770177 =
2016-05-03 02:35 METAR KEZF 030635Z AUTO 28003KT 10SM -RA SCT006 BKN015 OVC110 18/18 A2982 RMK
                 AO2 T01760176 =
2016-05-03 02:15 METAR KEZF 030615Z AUTO 00000KT 10SM SCT011 OVC110 18/18 A2981 RMK AO2 T01760176
                 =
2016-05-03 01:55 METAR KEZF 030555Z AUTO 16005KT 10SM SCT011 BKN110 18/18 A2982 RMK AO2 60009
                 T01770177 10256 20175 402970141 =
2016-05-03 01:35 METAR KEZF 030535Z AUTO 18004KT 10SM -RA BKN110 18/18 A2982 RMK AO2 T01770177 =
2016-05-03 01:15 METAR KEZF 030515Z AUTO 17005KT 10SM -RA OVC110 18/18 A2984 RMK AO2 T01780178 =
2016-05-03 00:55 METAR KEZF 030455Z AUTO 16004KT 10SM BKN110 18/18 A2984 RMK AO2 T01770177 =
2016-05-03 00:35 METAR KEZF 030435Z AUTO 00000KT 10SM CLR 18/18 A2984 RMK AO2 T01770177 =
2016-05-03 00:15 METAR KEZF 030415Z AUTO 16003KT 10SM CLR 18/18 A2984 RMK AO2 T01800180 =
2016-05-02 23:55 METAR KEZF 030355Z AUTO 19005KT 10SM CLR 18/18 A2986 RMK AO2 P0001 T01800180 =
2016-05-02 23:35 METAR KEZF 030335Z AUTO 24005KT 10SM SCT120 18/18 A2987 RMK AO2 P0001 T01800180
                 =
2016-05-02 23:15 METAR KEZF 030315Z AUTO 00000KT 10SM -RA SCT027 SCT034 BKN095 18/18 A2983 RMK
                 AO2 P0001 T01800180 =
2016-05-02 22:55 METAR KEZF 030255Z AUTO 06004KT 5SM RA SCT027 BKN035 OVC100 19/19 A2986 RMK AO2
                 P0008 60008 T01850185 =
2016-05-02 22:35 METAR KEZF 030235Z AUTO 29003KT 7SM RA SCT028 SCT043 OVC090 19/18 A2990 RMK AO2
                 P0005 T01900177 =
2016-05-02 22:15 METAR KEZF 030215Z AUTO 27011G16KT 10SM RA SCT036 BKN060 OVC110 20/18 A2991 RMK
                 AO2 P0001 T02000178 =
2016-05-02 21:55 METAR KEZF 030155Z AUTO 24007KT 10SM -RA BKN060 BKN075 OVC090 21/18 A2990 RMK
                 AO2 T02060182 =
2016-05-02 21:35 METAR KEZF 030135Z AUTO 23006KT 10SM SCT050 BKN090 OVC120 21/18 A2988 RMK AO2
                 T02120181 =
2016-05-02 21:15 METAR KEZF 030115Z AUTO 28004KT 10SM SCT050 SCT070 BKN120 21/18 A2983 RMK AO2
                 T02070183 =
2016-05-02 20:55 METAR KEZF 030055Z AUTO 23012G20KT 10SM -RA SCT055 SCT065 SCT090 23/18 A2982 RMK
                 AO2 T02300183 =
2016-05-02 20:35 METAR KEZF 030035Z AUTO 23010KT 10SM -RA CLR 25/19 A2981 RMK AO2 T02460189 =
2016-05-02 20:15 METAR KEZF 030015Z AUTO 19008KT 10SM -RA SCT075 SCT110 25/19 A2980 RMK AO2
                 T02470193 =
2016-05-02 19:55 METAR KEZF 022355Z AUTO 20005KT 10SM SCT075 SCT110 26/18 A2981 RMK AO2 T02560184
                 10297 20240 =
2016-05-02 19:35 METAR KEZF 022335Z AUTO 20007KT 10SM CLR 26/18 A2982 RMK AO2 T02630182 =
2016-05-02 19:15 METAR KEZF 022315Z AUTO 20009G15KT 10SM CLR 27/18 A2982 RMK AO2 T02690181 =
2016-05-02 18:55 METAR KEZF 022255Z AUTO 18007KT 10SM CLR 27/18 A2980 RMK AO2 T02710184 =
2016-05-02 18:35 METAR KEZF 022235Z AUTO 18007KT 10SM CLR 27/18 A2978 RMK AO2 T02720183 =
2016-05-02 18:15 METAR KEZF 022215Z AUTO 17007KT 10SM CLR 28/19 A2979 RMK AO2 T02770185 =
2016-05-02 17:55 METAR KEZF 022155Z AUTO 17009KT 10SM CLR 29/19 A2980 RMK AO2 T02880189 =
2016-05-02 17:35 METAR KEZF 022135Z AUTO 20009KT 10SM SCT050 SCT100 29/19 A2980 RMK AO2 T02910186
                 =
2016-05-02 17:15 METAR KEZF 022115Z AUTO 17010KT 10SM SCT050 SCT120 30/19 A2981 RMK AO2 T02950191
                 =
2016-05-02 16:55 METAR KEZF 022055Z AUTO 21007KT 10SM SCT048 30/19 A2982 RMK AO2 T02960189 =
2016-05-02 16:35 METAR KEZF 022035Z AUTO 19006KT 150V210 10SM CLR 30/20 A2983 RMK AO2 T02950199 =
2016-05-02 16:15 METAR KEZF 022015Z AUTO 22006KT 10SM CLR 29/19 A2983 RMK AO2 T02920187 =
2016-05-02 15:55 METAR KEZF 021955Z AUTO 16006KT 10SM CLR 29/21 A2984 RMK AO2 T02870208 =
2016-05-02 15:35 METAR KEZF 021935Z AUTO 19006KT 10SM CLR 29/20 A2985 RMK AO2 T02850196 =
2016-05-02 15:15 METAR KEZF 021915Z AUTO 19006KT 10SM CLR 28/20 A2986 RMK AO2 T02770201 =
2016-05-02 14:55 METAR KEZF 021855Z AUTO 17009KT 10SM CLR 27/20 A2987 RMK AO2 T02700203 =
2016-05-02 14:35 METAR KEZF 021835Z AUTO 20009KT 10SM CLR 26/20 A2988 RMK AO2 T02620202 =
2016-05-02 14:15 METAR KEZF 021815Z AUTO 16005KT 10SM CLR 25/20 A2989 RMK AO2 T02480196 =

Support USWX by starting your Amazon purchase here.